Tambov, Russia
Current Conditions -  °F | °C
As of 11:30 AM on Sunday 23 Nov 2014 (Local Time) from UUOO Reporting Station
Scattered Clouds Scattered Clouds  
Wind Chill: 15°   Ceiling: Unl
Heat Index: 23°   Visibility: 6mi
Dew Point: 21°   Wind: 7mph
Humidity: 93%   Direction: 300°WNW
Pressure: 30.42"   Gusts: NA
Location:  52.73°N, 41.43°E
Report Text: UUOO 230830Z 30003MPS 9000 SCT100 M05/M06 Q1030 NOSIG RMK30090070
Loading
Personal Weather Stations






























Interactive Weather Map New forecast layout! Learn more

10-Day Weather Forecast

Advertisements
Track Severe Weather on mobile